Time;durP1;ratioP1;P1;durP2;ratioP2;P2;SDS_P1;SDS_P2;PMS_P1;PMS_P2;Temp;Humidity;BMP_temperature;BMP_pressure;BME280_temperature;BME280_humidity;BME280_pressure;Samples;Min_cycle;Max_cycle;Signal;HPM_P1;HPM_P2
2021/02/20 00:01:12;;;;;;;;;27.25;23.25;;;;;-5.32;66.10;102112.53;3725476;38;20569;-52
2021/02/20 00:03:41;;;;;;;;;31.00;26.75;;;;;-5.32;66.58;102110.78;3725422;37;20586;-53
2021/02/20 00:06:08;;;;;;;;;31.00;24.00;;;;;-5.35;66.28;102100.31;3725493;38;20546;-53
2021/02/20 00:08:34;;;;;;;;;35.25;25.00;;;;;-5.32;66.82;102109.91;3725374;38;20571;-53
2021/02/20 00:11:01;;;;;;;;;31.00;25.50;;;;;-5.37;66.68;102105.63;3725591;37;20567;-53
2021/02/20 00:13:28;;;;;;;;;22.25;19.00;;;;;-5.41;66.93;102103.12;3725535;38;20580;-53
2021/02/20 00:15:54;;;;;;;;;25.75;23.75;;;;;-5.45;67.08;102104.13;3725404;38;20526;-54
2021/02/20 00:18:21;;;;;;;;;27.50;20.75;;;;;-5.47;67.62;102105.94;3725421;38;20558;-53
2021/02/20 00:20:47;;;;;;;;;22.25;19.50;;;;;-5.50;67.24;102095.47;3725428;38;20546;-53
2021/02/20 00:23:14;;;;;;;;;25.00;21.75;;;;;-5.46;67.73;102095.34;3725289;38;20558;-53
2021/02/20 00:25:40;;;;;;;;;17.75;16.00;;;;;-5.36;67.65;102095.94;3725263;37;20517;-54
2021/02/20 00:28:07;;;;;;;;;22.75;18.50;;;;;-5.36;67.43;102096.81;3724739;37;20594;-53
2021/02/20 00:30:34;;;;;;;;;34.25;29.00;;;;;-5.45;67.64;102098.84;3724813;37;20527;-52
2021/02/20 00:33:01;;;;;;;;;25.50;20.75;;;;;-5.43;67.56;102097.03;3724845;37;20538;-52
2021/02/20 00:35:27;;;;;;;;;24.25;20.00;;;;;-5.44;67.56;102101.44;3725317;37;20527;-52
2021/02/20 00:37:55;;;;;;;;;23.25;23.00;;;;;-5.46;67.42;102090.06;3725290;38;20516;-53
2021/02/20 00:40:28;;;;;;;;;18.50;15.50;;;;;-5.46;67.45;102089.19;3724949;37;20572;-51
2021/02/20 00:42:57;;;;;;;;;21.50;18.75;;;;;-5.57;67.54;102088.63;3725396;37;20506;-52
2021/02/20 00:45:26;;;;;;;;;23.75;19.00;;;;;-5.71;67.83;102076.69;3725357;38;20519;-55
2021/02/20 00:47:53;;;;;;;;;20.25;18.00;;;;;-5.67;67.88;102086.25;3725257;37;20505;-53
2021/02/20 00:50:22;;;;;;;;;26.00;20.25;;;;;-5.62;68.08;102091.41;3725398;37;20501;-55
2021/02/20 00:52:49;;;;;;;;;23.00;21.50;;;;;-5.77;68.41;102090.09;3725308;38;20496;-53
2021/02/20 00:55:20;;;;;;;;;20.00;18.25;;;;;-5.75;68.22;102085.62;3725034;37;20477;-52
2021/02/20 00:57:46;;;;;;;;;28.75;23.25;;;;;-5.68;68.61;102086.28;3725326;37;20499;-53
2021/02/20 01:00:14;;;;;;;;;19.25;18.75;;;;;-5.62;68.51;102090.53;3725538;37;20497;-54
2021/02/20 01:02:41;;;;;;;;;21.50;16.50;;;;;-5.72;68.30;102096.06;3725223;37;20508;-53
2021/02/20 01:05:08;;;;;;;;;20.00;19.75;;;;;-5.61;68.54;102090.50;3725252;37;20483;-55
2021/02/20 01:07:35;;;;;;;;;26.25;23.25;;;;;-5.67;68.84;102078.34;3725334;37;20473;-53
2021/02/20 01:10:04;;;;;;;;;25.75;21.25;;;;;-5.71;68.93;102089.00;3725216;37;20467;-52
2021/02/20 01:12:30;;;;;;;;;28.00;22.00;;;;;-5.68;68.99;102083.66;3725462;38;20707;-53
2021/02/20 01:14:58;;;;;;;;;24.50;21.00;;;;;-5.65;69.14;102088.84;3725556;38;20482;-53
2021/02/20 01:17:24;;;;;;;;;34.50;24.75;;;;;-5.70;68.98;102080.19;3725696;38;20863;-52
2021/02/20 01:19:51;;;;;;;;;35.50;25.75;;;;;-5.79;69.38;102078.72;3724863;37;20452;-57
2021/02/20 01:22:20;;;;;;;;;21.75;19.50;;;;;-5.80;69.53;102070.84;3725204;38;21458;-53
2021/02/20 01:24:46;;;;;;;;;28.00;21.50;;;;;-5.76;69.56;102083.91;3725574;37;21436;-54
2021/02/20 01:27:13;;;;;;;;;25.00;24.50;;;;;-5.73;69.56;102086.47;3724945;37;20464;-51
2021/02/20 01:29:39;;;;;;;;;27.75;22.75;;;;;-5.72;69.64;102082.88;3725230;38;20468;-52
2021/02/20 01:32:06;;;;;;;;;41.00;27.00;;;;;-5.72;69.63;102085.50;3725450;37;21438;-53
2021/02/20 01:34:34;;;;;;;;;38.75;27.00;;;;;-5.72;69.93;102084.69;3725209;38;21443;-52
2021/02/20 01:37:00;;;;;;;;;28.50;19.50;;;;;-5.74;69.86;102082.09;3725378;37;20464;-53
2021/02/20 01:39:26;;;;;;;;;29.25;25.50;;;;;-5.72;70.08;102085.50;3725284;37;21433;-52
2021/02/20 01:41:53;;;;;;;;;27.50;22.25;;;;;-5.73;69.88;102089.09;3725249;37;21447;-53
2021/02/20 01:44:20;;;;;;;;;36.00;30.25;;;;;-5.71;70.52;102081.97;3725339;38;21434;-53
2021/02/20 01:46:46;;;;;;;;;26.75;21.75;;;;;-5.66;70.63;102082.72;3725357;37;21566;-52
2021/02/20 01:49:13;;;;;;;;;34.25;31.00;;;;;-5.70;70.59;102080.19;3725222;38;21411;-52
2021/02/20 01:51:40;;;;;;;;;32.75;21.50;;;;;-5.73;70.88;102082.94;3725175;37;21427;-52
2021/02/20 01:54:07;;;;;;;;;29.25;26.25;;;;;-5.75;70.86;102079.50;3725223;37;21443;-52
2021/02/20 01:56:35;;;;;;;;;32.25;28.25;;;;;-5.73;70.99;102081.19;3725309;37;21404;-53
2021/02/20 01:59:02;;;;;;;;;27.00;21.50;;;;;-5.73;71.52;102083.81;3725476;37;21410;-54
2021/02/20 02:01:28;;;;;;;;;19.75;18.50;;;;;-5.68;71.61;102088.94;3725253;38;21402;-52
2021/02/20 02:03:58;;;;;;;;;31.75;25.50;;;;;-5.60;71.46;102089.59;3725087;37;21413;-52
2021/02/20 02:06:24;;;;;;;;;28.75;23.75;;;;;-5.53;71.47;102090.28;3725151;38;21418;-53
2021/02/20 02:08:51;;;;;;;;;24.25;19.00;;;;;-5.52;71.52;102087.59;3725374;37;21392;-52
2021/02/20 02:11:17;;;;;;;;;26.00;25.00;;;;;-5.44;71.64;102090.03;3725212;38;21402;-53
2021/02/20 02:13:44;;;;;;;;;28.00;23.75;;;;;-5.43;71.38;102082.06;3725302;38;21381;-52
2021/02/20 02:16:39;;;;;;;;;27.50;25.50;;;;;-5.35;71.43;102093.25;3725343;38;21418;-53
2021/02/20 02:20:19;;;;;;;;;27.25;21.25;;;;;-7.71;71.33;101704.03;3725272;37;21406;-52
2021/02/20 02:23:00;;;;;;;;;22.00;19.00;;;;;-5.34;71.44;102096.75;3725342;37;21389;-52
2021/02/20 02:26:08;;;;;;;;;27.50;26.00;;;;;-5.31;71.50;102101.09;3725364;37;21391;-52
2021/02/20 02:28:55;;;;;;;;;28.50;23.75;;;;;-5.35;71.47;102095.03;3724988;37;21384;-53
2021/02/20 02:32:25;;;;;;;;;27.25;22.50;;;;;-5.40;71.58;102094.28;3725333;37;21378;-52
2021/02/20 02:35:16;;;;;;;;;24.75;22.00;;;;;-5.40;71.85;102097.81;3725283;37;21368;-52
2021/02/20 02:38:06;;;;;;;;;24.25;19.50;;;;;-5.36;71.82;102096.81;3725274;38;21360;-53
2021/02/20 02:41:03;;;;;;;;;21.75;20.25;;;;;-5.43;71.94;102095.25;3724939;38;21368;-53
2021/02/20 02:43:44;;;;;;;;;27.75;22.00;;;;;-5.43;72.24;102092.62;3725199;38;21351;-52
2021/02/20 02:46:13;;;;;;;;;26.50;21.75;;;;;-5.36;72.29;102093.31;3725348;38;21395;-52
2021/02/20 02:48:41;;;;;;;;;27.75;22.50;;;;;-5.40;72.49;102095.16;3725313;38;21367;-52
2021/02/20 02:51:09;;;;;;;;;33.25;27.75;;;;;-5.40;72.46;102094.28;3725294;37;21370;-52
2021/02/20 02:53:38;;;;;;;;;28.00;26.00;;;;;-5.43;72.61;102105.81;3725239;38;21360;-52
2021/02/20 02:56:12;;;;;;;;;20.50;18.50;;;;;-5.39;72.86;102093.38;3725320;38;21366;-52
2021/02/20 02:58:45;;;;;;;;;34.00;28.00;;;;;-5.35;73.01;102089.75;3725023;38;21350;-53
2021/02/20 03:01:16;;;;;;;;;30.25;27.50;;;;;-5.36;72.96;102082.75;3725499;38;21383;-52
2021/02/20 03:03:45;;;;;;;;;34.25;30.50;;;;;-5.35;73.00;102089.75;3725139;37;21340;-52
2021/02/20 03:06:17;;;;;;;;;29.25;24.75;;;;;-5.40;73.16;102091.66;3725324;37;21372;-53
2021/02/20 03:08:47;;;;;;;;;24.25;21.25;;;;;-5.36;73.07;102093.31;3725333;38;21360;-53
2021/02/20 03:11:15;;;;;;;;;35.25;28.00;;;;;-5.38;73.27;102092.47;3725396;37;21683;-52
2021/02/20 03:13:42;;;;;;;;;39.00;33.75;;;;;-5.34;73.28;102091.47;3725331;38;21408;-52
2021/02/20 03:16:08;;;;;;;;;40.00;26.50;;;;;-5.35;73.39;102097.66;3725276;38;21538;-52
2021/02/20 03:18:38;;;;;;;;;25.75;21.25;;;;;-5.28;73.52;102101.84;3725468;38;21353;-52
2021/02/20 03:21:05;;;;;;;;;30.75;23.75;;;;;-5.31;73.33;102090.53;3725494;38;21334;-52
2021/02/20 03:23:37;;;;;;;;;25.00;21.25;;;;;-5.33;73.41;102098.50;3725266;37;21337;-51
2021/02/20 03:26:06;;;;;;;;;31.00;28.50;;;;;-5.46;73.33;102081.28;3725172;37;21331;-51
2021/02/20 03:28:33;;;;;;;;;29.50;25.75;;;;;-5.33;73.48;102101.13;3725365;37;21309;-55
2021/02/20 03:31:02;;;;;;;;;35.75;28.50;;;;;-5.40;73.41;102105.72;3725439;37;21330;-51
2021/02/20 03:33:30;;;;;;;;;18.75;17.50;;;;;-5.36;73.63;102101.22;3725303;38;21317;-52
2021/02/20 03:35:58;;;;;;;;;21.50;16.25;;;;;-5.34;73.62;102109.97;3725574;38;21312;-55
2021/02/20 03:38:26;;;;;;;;;28.00;21.75;;;;;-5.33;73.61;102106.41;3725359;38;21320;-52
2021/02/20 03:40:54;;;;;;;;;32.00;28.50;;;;;-5.33;73.57;102106.41;3724707;38;21312;-52
2021/02/20 03:43:26;;;;;;;;;33.25;29.00;;;;;-5.30;73.58;102110.72;3725347;38;21293;-52
2021/02/20 03:45:54;;;;;;;;;36.25;33.00;;;;;-5.32;73.63;102117.81;3725506;38;21308;-51
2021/02/20 03:48:26;;;;;;;;;34.75;25.75;;;;;-5.37;73.60;102117.97;3725432;37;21302;-52
2021/02/20 03:50:54;;;;;;;;;30.25;28.00;;;;;-5.30;74.12;102126.56;3725342;38;21289;-53
2021/02/20 03:53:23;;;;;;;;;38.25;27.00;;;;;-5.33;73.66;102130.16;3725383;37;21272;-52
2021/02/20 03:55:51;;;;;;;;;37.00;31.50;;;;;-5.38;73.82;102122.38;3725358;38;21292;-52
2021/02/20 03:58:18;;;;;;;;;43.25;29.50;;;;;-5.36;73.97;102130.25;3725449;37;21305;-52
2021/02/20 04:00:52;;;;;;;;;37.00;30.50;;;;;-5.41;74.22;102122.44;3725077;37;21268;-52
2021/02/20 04:03:19;;;;;;;;;37.25;27.75;;;;;-5.37;74.10;102131.16;3725337;37;21276;-53
2021/02/20 04:05:47;;;;;;;;;38.25;30.50;;;;;-5.36;74.32;102135.53;3725094;37;21284;-52
2021/02/20 04:08:13;;;;;;;;;37.00;33.00;;;;;-5.37;74.51;102137.28;3725527;37;21274;-52
2021/02/20 04:10:43;;;;;;;;;33.50;32.75;;;;;-5.35;74.28;102143.38;3725455;37;21276;-53
2021/02/20 04:13:10;;;;;;;;;47.25;45.00;;;;;-5.38;74.48;102138.19;3725593;37;21266;-53
2021/02/20 04:15:38;;;;;;;;;35.25;28.25;;;;;-5.41;74.52;102143.56;3725271;38;21253;-52
2021/02/20 04:18:05;;;;;;;;;42.75;31.00;;;;;-5.41;74.74;102147.97;3725416;38;21255;-52
2021/02/20 04:20:33;;;;;;;;;42.75;30.75;;;;;-5.46;74.60;102150.75;3725596;37;21245;-52
2021/02/20 04:23:01;;;;;;;;;38.75;33.50;;;;;-5.48;74.82;102155.19;3725643;37;21222;-52
2021/02/20 04:25:29;;;;;;;;;47.25;34.00;;;;;-5.53;74.79;102150.94;3725330;38;21242;-53
2021/02/20 04:27:55;;;;;;;;;39.50;33.75;;;;;-5.52;74.91;102161.44;3725267;38;21224;-52
2021/02/20 04:30:23;;;;;;;;;43.25;34.50;;;;;-5.52;74.85;102160.59;3725843;38;21234;-52
2021/02/20 04:32:50;;;;;;;;;33.75;26.75;;;;;-5.52;74.84;102165.87;3724908;37;21245;-53
2021/02/20 04:35:22;;;;;;;;;35.75;27.50;;;;;-5.52;74.93;102165.87;3725517;38;21231;-52
2021/02/20 04:37:50;;;;;;;;;33.75;28.00;;;;;-5.54;74.95;102162.41;3725587;37;21221;-53
2021/02/20 04:40:19;;;;;;;;;40.50;34.50;;;;;-5.57;74.71;102173.03;3725411;38;21240;-52
2021/02/20 04:42:46;;;;;;;;;35.00;31.00;;;;;-5.69;75.08;102174.22;3725482;38;21196;-52
2021/02/20 04:45:16;;;;;;;;;35.25;29.50;;;;;-5.75;75.31;102164.72;3725262;38;21197;-52
2021/02/20 04:47:45;;;;;;;;;42.00;35.50;;;;;-5.77;75.42;102165.69;3725047;38;21203;-52
2021/02/20 04:50:13;;;;;;;;;39.75;30.50;;;;;-5.72;75.41;102172.53;3724119;37;21183;-52
2021/02/20 04:52:41;;;;;;;;;28.25;25.00;;;;;-5.86;75.55;102163.28;3724326;37;21190;-52
2021/02/20 04:55:09;;;;;;;;;38.00;27.00;;;;;-5.77;75.48;102189.41;3724923;37;21187;-53
2021/02/20 04:57:37;;;;;;;;;34.50;28.50;;;;;-5.80;75.60;102187.72;3725293;38;21163;-52
2021/02/20 05:00:12;;;;;;;;;30.50;22.00;;;;;-5.85;75.30;102188.75;3725360;37;21203;-53
2021/02/20 05:02:39;;;;;;;;;25.75;22.50;;;;;-5.95;75.47;102189.91;3725482;37;21157;-51
2021/02/20 05:05:08;;;;;;;;;34.75;26.75;;;;;-5.95;75.65;102198.69;3725444;38;21164;-52
2021/02/20 05:07:35;;;;;;;;;29.50;19.50;;;;;-5.94;75.93;102203.06;3725072;38;21179;-52
2021/02/20 05:10:02;;;;;;;;;37.00;28.50;;;;;-5.90;76.02;102203.84;3725391;38;21195;-52
2021/02/20 05:12:28;;;;;;;;;35.75;27.25;;;;;-5.96;76.09;102212.75;3725393;37;21155;-53
2021/02/20 05:14:55;;;;;;;;;36.00;28.50;;;;;-5.99;76.23;102211.97;3725350;38;21173;-53
2021/02/20 05:17:21;;;;;;;;;42.00;37.50;;;;;-5.98;76.26;102214.56;3725382;37;21147;-53
2021/02/20 05:19:49;;;;;;;;;24.50;21.25;;;;;-5.93;76.20;102212.69;3725544;38;21184;-53
2021/02/20 05:22:22;;;;;;;;;46.75;33.25;;;;;-5.92;76.41;102206.50;3725395;38;21128;-53
2021/02/20 05:24:50;;;;;;;;;30.25;20.00;;;;;-5.84;76.66;102222.97;3725370;37;21127;-53
2021/02/20 05:27:16;;;;;;;;;33.25;27.75;;;;;-5.87;76.50;102225.69;3725673;37;21183;-53
2021/02/20 05:29:43;;;;;;;;;44.75;29.00;;;;;-5.84;76.40;102225.59;3726047;37;21135;-53
2021/02/20 05:32:09;;;;;;;;;27.25;22.00;;;;;-5.73;76.55;102231.47;3725999;37;21127;-53
2021/02/20 05:34:35;;;;;;;;;39.50;32.50;;;;;-5.74;76.45;102231.53;3726202;38;21119;-52
2021/02/20 05:37:02;;;;;;;;;42.25;33.25;;;;;-5.75;76.44;102228.03;3725927;37;21136;-53
2021/02/20 05:39:28;;;;;;;;;32.75;28.25;;;;;-5.66;76.86;102240.94;3726344;38;21123;-53
2021/02/20 05:41:57;;;;;;;;;32.25;29.50;;;;;-5.63;76.59;102237.34;3726404;37;21116;-53
2021/02/20 05:44:24;;;;;;;;;27.75;23.25;;;;;-5.58;76.60;102243.37;3726034;38;21139;-52
2021/02/20 05:46:55;;;;;;;;;38.25;31.50;;;;;-5.54;76.64;102244.16;3725512;37;21118;-53
2021/02/20 05:49:27;;;;;;;;;47.50;32.50;;;;;-5.53;76.30;102253.81;3726482;38;21119;-54
2021/02/20 05:51:56;;;;;;;;;29.25;29.00;;;;;-5.49;76.93;102247.56;3725330;38;21116;-52
2021/02/20 05:54:24;;;;;;;;;40.50;36.25;;;;;-5.45;76.56;102243.94;3725475;38;21117;-54
2021/02/20 05:56:53;;;;;;;;;43.25;32.00;;;;;-5.43;76.64;102253.53;3725465;38;21072;-51
2021/02/20 05:59:20;;;;;;;;;45.25;37.75;;;;;-5.31;76.74;102254.13;3725452;38;21093;-52
2021/02/20 06:01:47;;;;;;;;;25.75;21.00;;;;;-5.32;76.48;102249.75;3724930;38;21075;-52
2021/02/20 06:04:19;;;;;;;;;34.00;32.75;;;;;-5.29;76.58;102255.81;3725267;38;21077;-52
2021/02/20 06:06:46;;;;;;;;;36.75;33.75;;;;;-5.14;76.34;102260.66;3725488;37;21067;-54
2021/02/20 06:09:13;;;;;;;;;41.25;36.50;;;;;-4.95;76.76;102268.06;3725404;38;21072;-53
2021/02/20 06:11:40;;;;;;;;;43.75;36.75;;;;;-4.92;76.40;102258.28;3725428;37;21083;-54
2021/02/20 06:14:27;;;;;;;;;42.25;36.25;;;;;-4.82;76.27;102262.41;3725449;37;21091;-53
2021/02/20 06:16:54;;;;;;;;;47.00;41.50;;;;;-4.82;75.97;102266.81;3725399;37;21083;-53
2021/02/20 06:19:28;;;;;;;;;51.00;42.50;;;;;-4.79;76.20;102267.59;3725208;37;21067;-52
2021/02/20 06:21:56;;;;;;;;;46.50;38.75;;;;;-4.74;75.80;102270.13;3725362;37;21060;-52
2021/02/20 06:24:23;;;;;;;;;51.00;42.25;;;;;-4.66;76.32;102268.94;3725413;38;21069;-52
2021/02/20 06:26:53;;;;;;;;;42.50;35.25;;;;;-4.64;75.95;102268.91;3725432;38;21064;-53
2021/02/20 06:29:27;;;;;;;;;40.50;36.00;;;;;-4.62;75.72;102267.09;3725242;37;21078;-57
2021/02/20 06:31:56;;;;;;;;;46.25;38.25;;;;;-4.54;75.66;102274.78;3725380;38;21065;-56
2021/02/20 06:34:23;;;;;;;;;56.00;43.75;;;;;-4.55;75.49;102276.56;3725338;38;21045;-56
2021/02/20 06:36:53;;;;;;;;;41.75;37.25;;;;;-4.54;75.18;102275.66;3725394;37;21059;-55
2021/02/20 06:39:25;;;;;;;;;44.50;35.00;;;;;-4.53;75.49;102280.03;3725348;37;21047;-56
2021/02/20 06:41:57;;;;;;;;;49.00;42.75;;;;;-4.49;75.38;102288.72;3725444;38;21026;-59
2021/02/20 06:44:35;;;;;;;;;65.75;48.00;;;;;-4.51;75.20;102288.78;3725480;38;21051;-58
2021/02/20 06:47:15;;;;;;;;;64.75;48.00;;;;;-4.44;75.27;102294.75;3725466;38;21036;-57
2021/02/20 06:49:44;;;;;;;;;55.75;42.50;;;;;-4.41;75.45;102284.09;3725428;38;21030;-57
2021/02/20 06:52:30;;;;;;;;;50.50;42.00;;;;;-4.36;75.00;102298.03;3725554;37;21030;-57
2021/02/20 06:55:17;;;;;;;;;49.25;42.00;;;;;-4.17;75.04;102296.56;3724989;37;21122;-56
2021/02/20 06:58:00;;;;;;;;;61.25;50.75;;;;;-4.19;75.05;102285.19;3724998;37;21076;-58
2021/02/20 07:00:29;;;;;;;;;49.50;41.75;;;;;-4.01;74.91;102299.59;3724940;37;21023;-60
2021/02/20 07:02:59;;;;;;;;;58.75;45.00;;;;;-3.88;74.47;102298.28;3725488;37;20988;-55
2021/02/20 07:05:26;;;;;;;;;51.50;39.50;;;;;-3.74;74.65;102313.72;3725067;38;21010;-56
2021/02/20 07:07:58;;;;;;;;;46.50;37.25;;;;;-3.71;74.25;102309.19;3725556;37;21006;-55
2021/02/20 07:10:31;;;;;;;;;53.75;42.50;;;;;-3.59;74.18;102304.41;3725495;38;20998;-55
2021/02/20 07:12:59;;;;;;;;;55.00;44.25;;;;;-3.47;74.33;102310.16;3725488;38;20977;-58
2021/02/20 07:15:28;;;;;;;;;59.50;44.25;;;;;-3.50;73.52;102317.31;3725333;37;21065;-56
2021/02/20 07:17:56;;;;;;;;;49.25;39.75;;;;;-3.44;73.56;102311.81;3725497;37;20981;-56
2021/02/20 07:20:28;;;;;;;;;48.00;39.50;;;;;-3.18;73.56;102318.91;3725381;37;21000;-57
2021/02/20 07:22:57;;;;;;;;;51.00;42.50;;;;;-3.10;73.33;102322.97;3725506;38;20983;-60
2021/02/20 07:25:58;;;;;;;;;47.75;43.00;;;;;-2.91;73.57;102322.34;3725300;37;20976;-60
2021/02/20 07:28:27;;;;;;;;;52.25;38.75;;;;;-2.93;72.27;102322.41;3725416;37;21012;-59
2021/02/20 07:31:01;;;;;;;;;49.75;41.50;;;;;-2.96;72.55;102321.63;3725416;37;20990;-58
2021/02/20 07:33:53;;;;;;;;;39.25;36.00;;;;;-2.83;72.60;102323.81;3725580;38;21010;-58
2021/02/20 07:36:21;;;;;;;;;35.75;27.00;;;;;-2.83;72.30;102321.16;3725600;37;20971;-59
2021/02/20 07:39:08;;;;;;;;;39.00;28.75;;;;;-2.73;71.66;102316.41;3725126;37;20963;-57
2021/02/20 07:42:04;;;;;;;;;50.50;42.25;;;;;-2.60;71.62;102324.78;3725277;38;20971;-59
2021/02/20 07:44:37;;;;;;;;;60.50;45.00;;;;;-2.48;71.20;102332.25;3725538;38;20942;-58
2021/02/20 07:47:14;;;;;;;;;44.75;41.25;;;;;-2.40;71.40;102336.34;3725472;38;20949;-59
2021/02/20 07:49:47;;;;;;;;;51.25;40.25;;;;;-2.31;70.89;102336.94;3725192;37;20953;-58
2021/02/20 07:52:22;;;;;;;;;46.00;35.75;;;;;-2.34;70.60;102341.41;3725385;38;20959;-58
2021/02/20 07:54:53;;;;;;;;;46.75;41.50;;;;;-2.27;70.19;102349.16;3725241;37;20957;-57
2021/02/20 07:57:49;;;;;;;;;49.25;41.75;;;;;-2.21;70.47;102344.47;3725301;37;20938;-63
2021/02/20 08:00:41;;;;;;;;;46.00;36.25;;;;;-2.09;70.43;102343.16;3725554;38;20921;-58
2021/02/20 08:03:29;;;;;;;;;44.75;39.00;;;;;-2.08;70.02;102339.56;3725489;38;20931;-57
2021/02/20 08:05:59;;;;;;;;;45.50;38.75;;;;;-2.10;69.61;102346.72;3725473;37;20931;-56
2021/02/20 08:08:37;;;;;;;;;34.75;25.00;;;;;-2.07;69.35;102347.44;3725368;37;20939;-61
2021/02/20 08:11:04;;;;;;;;;54.50;40.50;;;;;-2.04;69.33;102351.75;3725250;37;20903;-58
2021/02/20 08:13:46;;;;;;;;;51.75;41.50;;;;;-1.95;69.35;102355.84;3725333;37;20924;-55
2021/02/20 08:16:33;;;;;;;;;52.50;38.00;;;;;-1.85;69.50;102351.91;3723690;37;20972;-60
2021/02/20 08:19:05;;;;;;;;;57.75;41.25;;;;;-1.71;69.20;102352.25;3724133;37;20919;-56
2021/02/20 08:21:32;;;;;;;;;44.25;37.50;;;;;-1.64;68.57;102368.78;3724486;38;20928;-56
2021/02/20 08:24:04;;;;;;;;;43.00;31.25;;;;;-1.60;68.87;102367.75;3724959;38;20909;-56
2021/02/20 08:26:39;;;;;;;;;38.25;36.75;;;;;-1.60;68.63;102360.66;3723112;38;20914;-56
2021/02/20 08:29:14;;;;;;;;;49.00;37.75;;;;;-1.43;68.72;102359.94;3725619;37;20918;-57
2021/02/20 08:31:43;;;;;;;;;44.75;40.00;;;;;-1.33;68.07;102358.63;3722793;38;20871;-59
2021/02/20 08:34:18;;;;;;;;;47.00;40.50;;;;;-1.40;67.86;102359.81;3722599;37;20925;-56
2021/02/20 08:36:48;;;;;;;;;59.75;45.00;;;;;-1.30;67.96;102361.16;3723237;37;20853;-56
2021/02/20 08:39:23;;;;;;;;;45.00;39.75;;;;;-1.15;67.91;102362.34;3725413;37;20876;-57
2021/02/20 08:41:52;;;;;;;;;56.50;43.00;;;;;-1.06;67.61;102348.66;3725841;38;20864;-64
2021/02/20 08:44:20;;;;;;;;;52.50;44.00;;;;;-1.02;67.76;102355.53;3725283;37;20865;-56
2021/02/20 08:46:55;;;;;;;;;51.75;42.25;;;;;-1.04;67.06;102362.75;3722198;38;20870;-59
2021/02/20 08:49:24;;;;;;;;;46.00;35.75;;;;;-0.91;67.26;102363.06;3722051;37;20871;-56
2021/02/20 08:51:54;;;;;;;;;51.25;43.25;;;;;-0.83;67.07;102367.12;3723696;38;20846;-59
2021/02/20 08:54:25;;;;;;;;;52.50;40.50;;;;;-0.96;66.62;102368.56;3724015;38;20892;-57
2021/02/20 08:56:58;;;;;;;;;62.00;47.25;;;;;-1.13;66.77;102379.94;3721953;37;20852;-57
2021/02/20 08:59:27;;;;;;;;;63.00;45.50;;;;;-1.36;67.06;102377.34;3722776;37;20879;-58
2021/02/20 09:01:59;;;;;;;;;51.75;37.50;;;;;-1.28;67.86;102382.34;3725459;37;20849;-58
2021/02/20 09:04:30;;;;;;;;;41.75;33.50;;;;;-1.23;67.89;102391.00;3724114;37;20869;-59
2021/02/20 09:07:22;;;;;;;;;61.00;43.50;;;;;-1.16;67.80;102400.44;3724074;37;20830;-58
2021/02/20 09:09:50;;;;;;;;;56.50;44.75;;;;;-1.04;67.79;102395.47;3725429;38;20833;-57
2021/02/20 09:12:33;;;;;;;;;58.50;46.25;;;;;-0.88;67.80;102394.81;3725503;37;20842;-57
2021/02/20 09:15:06;;;;;;;;;61.50;44.75;;;;;-0.74;67.30;102389.78;3724730;38;20835;-59
2021/02/20 09:17:34;;;;;;;;;59.00;46.50;;;;;-0.65;66.68;102402.69;3725199;37;20843;-59
2021/02/20 09:20:04;;;;;;;;;56.00;44.00;;;;;-0.43;66.97;102400.78;3725472;38;20815;-59
2021/02/20 09:22:49;;;;;;;;;60.00;44.00;;;;;-0.29;66.06;102394.84;3724944;37;20832;-59
2021/02/20 09:25:36;;;;;;;;;64.00;49.25;;;;;-0.36;65.54;102393.41;3724054;37;20842;-60
2021/02/20 09:28:04;;;;;;;;;60.25;46.25;;;;;-0.33;65.97;102393.25;3725307;37;20824;-57
2021/02/20 09:30:58;;;;;;;;;69.00;50.50;;;;;-0.02;65.93;102400.72;3725238;38;20800;-61
2021/02/20 09:33:31;;;;;;;;;64.75;46.50;;;;;0.13;65.64;102393.81;3723746;37;20813;-59
2021/02/20 09:35:58;;;;;;;;;59.25;47.00;;;;;0.16;65.05;102396.31;3722761;38;20851;-59
2021/02/20 09:38:29;;;;;;;;;62.25;50.00;;;;;0.33;64.92;102405.25;3723293;37;20853;-60
2021/02/20 09:41:07;;;;;;;;;60.25;46.00;;;;;0.33;64.80;102399.94;3724800;38;20801;-59
2021/02/20 09:43:47;;;;;;;;;62.50;49.00;;;;;0.28;64.55;102399.28;3723996;38;20776;-60
2021/02/20 09:46:34;;;;;;;;;62.25;47.00;;;;;0.33;64.45;102393.75;3724733;37;20800;-61
2021/02/20 09:49:02;;;;;;;;;64.00;51.75;;;;;0.50;63.95;102396.47;3725364;37;20803;-62
2021/02/20 09:51:39;;;;;;;;;65.50;50.25;;;;;0.73;64.13;102391.78;3725241;38;20776;-62
2021/02/20 09:54:12;;;;;;;;;64.00;46.75;;;;;0.85;63.95;102389.37;3724956;37;20800;-55
2021/02/20 09:56:43;;;;;;;;;60.75;47.00;;;;;0.92;63.65;102390.81;3724992;38;20770;-55
2021/02/20 09:59:13;;;;;;;;;66.75;54.50;;;;;1.10;63.92;102383.66;3725493;38;20795;-56
2021/02/20 10:01:39;;;;;;;;;65.75;51.75;;;;;1.17;63.19;102387.75;3725322;37;20774;-56
2021/02/20 10:04:22;;;;;;;;;64.50;47.75;;;;;1.22;63.15;102390.19;3724908;38;20747;-55
2021/02/20 10:07:04;;;;;;;;;72.50;53.00;;;;;1.36;62.86;102385.00;3725343;38;20762;-60
2021/02/20 10:09:31;;;;;;;;;71.75;51.00;;;;;1.46;62.31;102382.72;3725270;37;20752;-57
2021/02/20 10:12:11;;;;;;;;;58.25;45.50;;;;;1.52;62.05;102395.75;3725103;38;20787;-60
2021/02/20 10:14:39;;;;;;;;;59.50;47.50;;;;;1.45;61.67;102400.53;3725451;37;20755;-59
2021/02/20 10:17:06;;;;;;;;;63.00;51.50;;;;;1.48;61.65;102396.84;3725424;37;20760;-56
2021/02/20 10:19:33;;;;;;;;;64.25;50.75;;;;;1.40;60.96;102397.25;3725565;38;20750;-57
2021/02/20 10:22:00;;;;;;;;;68.00;49.75;;;;;1.44;61.13;102400.59;3725129;37;20772;-58
2021/02/20 10:24:26;;;;;;;;;62.75;49.50;;;;;1.61;61.07;102397.91;3725344;37;20758;-57
2021/02/20 10:26:53;;;;;;;;;59.00;45.00;;;;;1.67;60.78;102400.25;3725269;37;20734;-57
2021/02/20 10:29:20;;;;;;;;;57.00;45.00;;;;;1.52;60.77;102398.41;3724998;37;21042;-58
2021/02/20 10:31:46;;;;;;;;;61.50;46.50;;;;;1.41;61.06;102406.09;3725455;37;20734;-57
2021/02/20 10:34:12;;;;;;;;;64.25;47.00;;;;;1.50;61.32;102392.28;3725059;37;20710;-57
2021/02/20 10:36:40;;;;;;;;;61.25;45.50;;;;;1.77;61.18;102401.47;3725229;38;20736;-57
2021/02/20 10:39:06;;;;;;;;;64.75;50.00;;;;;1.92;60.73;102397.13;3725427;37;20719;-57
2021/02/20 10:41:33;;;;;;;;;70.25;51.75;;;;;1.96;60.67;102388.88;3725347;37;20719;-56
2021/02/20 10:43:59;;;;;;;;;70.50;52.75;;;;;2.05;60.76;102384.84;3725212;37;20714;-56
2021/02/20 10:46:25;;;;;;;;;68.50;48.50;;;;;2.16;60.53;102387.75;3725281;37;20745;-56
2021/02/20 10:48:52;;;;;;;;;62.00;48.25;;;;;2.13;60.32;102377.25;3725447;37;20712;-56
2021/02/20 10:51:19;;;;;;;;;56.50;45.25;;;;;2.09;60.34;102375.69;3725433;37;20728;-56
2021/02/20 10:53:46;;;;;;;;;66.75;50.75;;;;;2.12;59.73;102378.19;3725312;37;20698;-56
2021/02/20 10:56:13;;;;;;;;;66.50;47.50;;;;;2.15;59.96;102385.16;3724901;38;20701;-57
2021/02/20 10:58:39;;;;;;;;;59.75;49.00;;;;;2.24;60.23;102385.53;3725081;37;20721;-57
2021/02/20 11:01:05;;;;;;;;;66.50;46.75;;;;;1.98;59.85;102375.44;3725391;38;20699;-57
2021/02/20 11:03:32;;;;;;;;;65.00;48.00;;;;;2.05;60.16;102382.16;3725366;37;20697;-57
2021/02/20 11:05:59;;;;;;;;;60.50;46.25;;;;;2.23;60.61;102386.47;3725500;37;20692;-59
2021/02/20 11:08:25;;;;;;;;;65.00;50.50;;;;;2.49;60.18;102397.53;3725284;37;20667;-56
2021/02/20 11:10:52;;;;;;;;;62.75;46.75;;;;;2.48;58.99;102402.00;3725418;38;20683;-62
2021/02/20 11:13:18;;;;;;;;;66.50;49.75;;;;;2.44;59.01;102404.94;3725296;38;20669;-56
2021/02/20 11:15:44;;;;;;;;;62.25;47.50;;;;;2.51;58.97;102409.84;3725303;37;20694;-56
2021/02/20 11:18:10;;;;;;;;;64.00;47.00;;;;;2.53;59.06;102402.59;3725500;38;20684;-57
2021/02/20 11:20:37;;;;;;;;;59.75;45.50;;;;;2.64;58.76;102404.66;3725656;38;20664;-57
2021/02/20 11:23:04;;;;;;;;;64.75;49.50;;;;;2.56;58.75;102391.75;3725425;37;20659;-61
2021/02/20 11:25:30;;;;;;;;;60.50;45.00;;;;;2.69;59.45;102389.19;3725103;38;20662;-57
2021/02/20 11:27:59;;;;;;;;;56.50;45.50;;;;;2.60;58.95;102379.91;3725296;37;20663;-56
2021/02/20 11:30:30;;;;;;;;;59.50;44.50;;;;;2.49;59.03;102378.81;3725464;37;20666;-57